createdAt,value
2023-02-11T00:03:59.259Z,22.55
2023-02-11T00:06:29.124Z,25.15
2023-02-11T00:08:57.800Z,28.67
2023-02-11T00:11:26.651Z,21.83
2023-02-11T00:13:53.618Z,26.25
2023-02-11T00:16:21.315Z,22.05
2023-02-11T00:18:49.816Z,21.38
2023-02-11T00:21:20.246Z,20.98
2023-02-11T00:23:47.724Z,23.90
2023-02-11T00:29:11.945Z,23.15
2023-02-11T00:31:40.817Z,26.98
2023-02-11T00:34:08.139Z,25.83
2023-02-11T00:36:36.435Z,24.15
2023-02-11T00:39:04.663Z,21.42
2023-02-11T00:41:33.116Z,20.13
2023-02-11T00:44:00.381Z,19.88
2023-02-11T00:46:27.526Z,16.75
2023-02-11T00:48:54.568Z,21.88
2023-02-11T00:51:25.257Z,24.45
2023-02-11T00:53:52.827Z,19.92
2023-02-11T00:56:20.396Z,24.17
2023-02-11T00:58:49.131Z,20.55
2023-02-11T01:01:17.684Z,18.17
2023-02-11T01:03:46.967Z,20.30
2023-02-11T01:06:14.785Z,19.50
2023-02-11T01:08:42.240Z,27.33
2023-02-11T01:11:16.550Z,20.80
2023-02-11T01:13:46.501Z,23.92
2023-02-11T01:16:15.155Z,18.85
2023-02-11T01:18:43.248Z,21.25
2023-02-11T01:21:10.899Z,20.65
2023-02-11T01:23:37.841Z,20.45
2023-02-11T01:26:05.795Z,23.45
2023-02-11T01:28:33.785Z,19.30
2023-02-11T01:31:03.133Z,21.42
2023-02-11T01:33:31.782Z,24.55
2023-02-11T01:36:01.959Z,21.08
2023-02-11T01:38:29.061Z,21.80
2023-02-11T01:41:01.166Z,21.15
2023-02-11T01:43:35.507Z,23.33
2023-02-11T01:46:31.895Z,21.25
2023-02-11T01:49:07.351Z,25.77
2023-02-11T01:51:40.059Z,16.42
2023-02-11T01:54:14.271Z,21.95
2023-02-11T01:56:49.333Z,18.45
2023-02-11T01:59:23.185Z,18.92
2023-02-11T02:01:58.766Z,20.88
2023-02-11T02:04:35.904Z,18.25
2023-02-11T02:07:09.114Z,16.67
2023-02-11T02:09:42.539Z,21.08
2023-02-11T02:12:09.428Z,20.42
2023-02-11T02:14:39.681Z,12.70
2023-02-11T02:17:09.264Z,21.30
2023-02-11T02:20:11.319Z,17.80
2023-02-11T02:23:26.047Z,15.17
2023-02-11T02:26:43.839Z,14.27
2023-02-11T02:30:01.139Z,17.25
2023-02-11T02:32:52.267Z,17.60
2023-02-11T02:35:35.637Z,15.57
2023-02-11T02:38:13.015Z,15.77
2023-02-11T02:40:47.531Z,11.90
2023-02-11T02:43:16.633Z,15.15
2023-02-11T02:45:43.896Z,16.42
2023-02-11T02:48:26.750Z,18.25
2023-02-11T02:51:10.066Z,20.05
2023-02-11T02:53:54.161Z,19.85
2023-02-11T02:56:34.979Z,25.42
2023-02-11T02:59:33.497Z,16.80
2023-02-11T03:02:14.259Z,17.65
2023-02-11T03:04:52.445Z,23.65
2023-02-11T03:07:35.673Z,20.38
2023-02-11T03:10:09.252Z,17.35
2023-02-11T03:12:38.110Z,17.85
2023-02-11T03:15:08.344Z,15.55
2023-02-11T03:17:40.558Z,18.88
2023-02-11T03:20:14.267Z,21.10
2023-02-11T03:22:47.800Z,20.67
2023-02-11T03:25:15.790Z,16.17
2023-02-11T03:27:51.941Z,18.10
2023-02-11T03:30:53.115Z,18.02
2023-02-11T03:33:28.652Z,19.63
2023-02-11T03:36:04.918Z,23.40
2023-02-11T03:38:37.396Z,20.33
2023-02-11T03:41:07.886Z,19.92
2023-02-11T03:43:42.516Z,16.15
2023-02-11T03:46:15.209Z,20.42
2023-02-11T03:48:48.045Z,22.20
2023-02-11T03:51:17.589Z,23.65
2023-02-11T03:53:46.918Z,21.33
2023-02-11T03:56:21.240Z,18.92
2023-02-11T03:58:48.909Z,20.85
2023-02-11T04:04:08.783Z,19.75
2023-02-11T04:06:37.319Z,20.67
2023-02-11T04:09:06.944Z,28.02
2023-02-11T04:11:34.154Z,26.55
2023-02-11T04:14:01.530Z,23.63
2023-02-11T04:16:29.161Z,16.45
2023-02-11T04:19:22.246Z,21.45
2023-02-11T04:21:52.978Z,17.70
2023-02-11T04:24:20.475Z,19.20
2023-02-11T04:26:48.243Z,17.67
2023-02-11T04:29:15.632Z,17.67
2023-02-11T04:31:42.746Z,21.17
2023-02-11T04:34:09.801Z,18.13
2023-02-11T04:36:40.293Z,19.35
2023-02-11T04:39:08.554Z,17.52
2023-02-11T04:41:35.857Z,19.08
2023-02-11T04:44:02.877Z,16.38
2023-02-11T04:46:29.765Z,14.85
2023-02-11T04:48:57.258Z,13.32
2023-02-11T04:51:24.877Z,17.67
2023-02-11T04:53:51.768Z,19.02
2023-02-11T04:56:21.637Z,17.83
2023-02-11T04:58:48.707Z,14.15
2023-02-11T05:01:16.949Z,20.38
2023-02-11T05:03:55.665Z,12.52
2023-02-11T05:06:29.753Z,16.45
2023-02-11T05:08:57.788Z,14.98
2023-02-11T05:11:26.381Z,13.93
2023-02-11T05:13:54.380Z,16.45
2023-02-11T05:16:21.563Z,13.48
2023-02-11T05:18:50.837Z,12.73
2023-02-11T05:21:20.014Z,13.77
2023-02-11T05:23:47.686Z,13.93
2023-02-11T05:26:15.483Z,11.15
2023-02-11T05:28:45.104Z,11.95
2023-02-11T05:31:12.573Z,10.45
2023-02-11T05:33:39.677Z,11.20
2023-02-11T05:36:09.890Z,8.93
2023-02-11T05:38:38.136Z,11.50
2023-02-11T05:41:07.234Z,8.80
2023-02-11T05:43:34.622Z,10.95
2023-02-11T05:46:03.834Z,7.75
2023-02-11T05:48:31.890Z,12.32
2023-02-11T05:50:59.106Z,11.25
2023-02-11T05:53:26.451Z,9.10
2023-02-11T05:55:53.545Z,14.63
2023-02-11T05:58:20.463Z,11.60
2023-02-11T06:00:47.328Z,15.35
2023-02-11T06:03:15.664Z,15.60
2023-02-11T06:05:43.807Z,13.60
2023-02-11T06:08:11.339Z,15.50
2023-02-11T06:10:38.969Z,15.15
2023-02-11T06:13:06.435Z,14.48
2023-02-11T06:15:33.592Z,14.20
2023-02-11T06:18:01.702Z,14.75
2023-02-11T06:20:30.115Z,12.82
2023-02-11T06:22:57.844Z,11.00
2023-02-11T06:25:25.052Z,13.57
2023-02-11T06:31:08.389Z,14.85
2023-02-11T06:33:36.008Z,12.15
2023-02-11T06:36:13.088Z,12.75
2023-02-11T06:38:40.695Z,16.67
2023-02-11T06:41:10.714Z,15.73
2023-02-11T06:43:37.591Z,15.13
2023-02-11T06:46:05.080Z,11.95
2023-02-11T06:48:32.156Z,15.00
2023-02-11T06:51:03.052Z,14.65
2023-02-11T06:53:32.185Z,11.40
2023-02-11T06:56:03.837Z,14.35
2023-02-11T06:58:30.779Z,16.83
2023-02-11T07:00:58.238Z,13.93
2023-02-11T07:03:26.316Z,12.10
2023-02-11T07:05:53.356Z,11.82
2023-02-11T07:08:20.725Z,15.60
2023-02-11T07:10:48.981Z,9.57
2023-02-11T07:13:16.411Z,11.20
2023-02-11T07:15:44.124Z,16.23
2023-02-11T07:18:14.293Z,13.57
2023-02-11T07:20:41.828Z,15.40
2023-02-11T07:23:09.000Z,14.48
2023-02-11T07:25:36.568Z,14.38
2023-02-11T07:30:56.458Z,12.25
2023-02-11T07:33:23.706Z,11.27
2023-02-11T07:35:50.938Z,13.10
2023-02-11T07:38:18.219Z,13.88
2023-02-11T07:40:45.033Z,9.85
2023-02-11T07:43:13.632Z,10.32
2023-02-11T07:45:40.576Z,11.43
2023-02-11T07:48:07.809Z,14.25
2023-02-11T07:50:34.741Z,11.90
2023-02-11T07:53:02.570Z,13.82
2023-02-11T07:55:29.684Z,10.60
2023-02-11T07:57:57.479Z,15.40
2023-02-11T08:00:25.795Z,13.93
2023-02-11T08:02:52.853Z,10.15
2023-02-11T08:05:20.118Z,14.98
2023-02-11T08:07:47.021Z,12.57
2023-02-11T08:10:14.037Z,12.85
2023-02-11T08:12:40.847Z,9.00
2023-02-11T08:15:08.995Z,11.50
2023-02-11T08:17:38.064Z,10.23
2023-02-11T08:20:05.957Z,6.75
2023-02-11T08:22:33.774Z,12.88
2023-02-11T08:25:01.135Z,8.35
2023-02-11T08:27:28.320Z,17.48
2023-02-11T08:29:56.011Z,16.20
2023-02-11T08:32:23.358Z,9.65
2023-02-11T08:34:52.599Z,15.57
2023-02-11T08:37:20.241Z,10.77
2023-02-11T08:39:47.512Z,9.43
2023-02-11T08:42:14.604Z,11.90
2023-02-11T08:44:41.731Z,10.98
2023-02-11T08:47:08.880Z,12.55
2023-02-11T08:49:36.046Z,12.15
2023-02-11T08:52:05.180Z,15.20
2023-02-11T08:54:32.381Z,8.25
2023-02-11T08:56:59.263Z,12.25
2023-02-11T08:59:26.285Z,9.13
2023-02-11T09:01:53.286Z,11.57
2023-02-11T09:04:20.624Z,9.32
2023-02-11T09:06:47.594Z,13.82
2023-02-11T09:09:16.524Z,10.43
2023-02-11T09:11:45.237Z,11.05
2023-02-11T09:14:18.769Z,9.55
2023-02-11T09:16:45.718Z,13.85
2023-02-11T09:19:12.810Z,8.75
2023-02-11T09:21:39.987Z,14.63
2023-02-11T09:24:07.427Z,12.52
2023-02-11T09:26:37.114Z,11.63
2023-02-11T09:29:05.328Z,13.00
2023-02-11T09:31:34.370Z,13.07
2023-02-11T09:34:05.461Z,11.43
2023-02-11T09:36:36.033Z,9.67
2023-02-11T09:39:09.427Z,15.40
2023-02-11T09:42:07.674Z,13.27
2023-02-11T09:44:37.495Z,13.90
2023-02-11T09:47:13.415Z,9.85
2023-02-11T09:49:47.102Z,11.00
2023-02-11T09:52:26.302Z,12.25
2023-02-11T09:54:57.610Z,13.15
2023-02-11T09:57:32.242Z,18.00
2023-02-11T09:59:59.807Z,14.68
2023-02-11T10:02:39.544Z,15.38
2023-02-11T10:05:29.360Z,10.07
2023-02-11T10:08:08.893Z,13.80
2023-02-11T10:10:50.879Z,9.23
2023-02-11T10:13:42.158Z,14.70
2023-02-11T10:16:31.007Z,11.23
2023-02-11T10:19:30.468Z,6.85
2023-02-11T10:22:09.931Z,9.55
2023-02-11T10:24:40.058Z,9.20
2023-02-11T10:27:36.185Z,9.55
2023-02-11T10:30:19.090Z,10.18
2023-02-11T10:32:54.679Z,18.40
2023-02-11T10:35:23.631Z,8.77
2023-02-11T10:37:50.900Z,8.98
2023-02-11T10:40:21.305Z,8.82
2023-02-11T10:42:55.126Z,8.95
2023-02-11T10:45:30.312Z,10.32
2023-02-11T10:47:57.246Z,12.40
2023-02-11T10:50:26.982Z,8.48
2023-02-11T10:53:15.585Z,4.80
2023-02-11T10:55:52.347Z,7.20
2023-02-11T10:58:28.359Z,8.70
2023-02-11T11:00:59.781Z,11.65
2023-02-11T11:03:32.852Z,10.95
2023-02-11T11:08:55.648Z,8.10
2023-02-11T11:11:25.258Z,9.07
2023-02-11T11:13:58.796Z,10.07
2023-02-11T11:16:28.934Z,12.02
2023-02-11T11:19:22.449Z,6.50
2023-02-11T11:21:51.908Z,11.27
2023-02-11T11:24:24.144Z,7.93
2023-02-11T11:26:56.792Z,12.18
2023-02-11T11:29:32.895Z,15.23
2023-02-11T11:32:06.680Z,10.57
2023-02-11T11:34:37.638Z,9.25
2023-02-11T11:37:13.166Z,9.90
2023-02-11T11:39:40.832Z,9.88
2023-02-11T11:45:26.268Z,7.07
2023-02-11T11:47:59.414Z,7.22
2023-02-11T11:50:32.753Z,8.13
2023-02-11T11:53:05.394Z,7.22
2023-02-11T11:55:41.004Z,8.23
2023-02-11T11:58:15.284Z,9.40
2023-02-11T12:00:54.747Z,9.35
2023-02-11T12:04:09.784Z,10.50
2023-02-11T12:07:00.127Z,11.00
2023-02-11T12:09:40.988Z,5.65
2023-02-11T12:12:31.394Z,14.05
2023-02-11T12:15:17.830Z,12.25
2023-02-11T12:18:14.839Z,7.97
2023-02-11T12:21:04.683Z,7.78
2023-02-11T12:23:54.382Z,12.95
2023-02-11T12:26:25.640Z,8.60
2023-02-11T12:29:09.881Z,8.30
2023-02-11T12:31:59.568Z,7.32
2023-02-11T12:35:03.335Z,9.65
2023-02-11T12:37:48.856Z,8.70
2023-02-11T12:56:51.974Z,7.40
2023-02-11T12:59:38.226Z,6.88
2023-02-11T13:02:20.852Z,8.32
2023-02-11T13:07:28.481Z,7.45
2023-02-11T13:10:03.371Z,11.07
2023-02-11T13:12:33.048Z,8.32
2023-02-11T13:15:10.172Z,7.85
2023-02-11T13:17:48.119Z,7.75
2023-02-11T13:20:36.844Z,7.60
2023-02-11T13:23:16.934Z,8.18
2023-02-11T13:25:52.871Z,9.90
2023-02-11T13:28:38.747Z,8.68
2023-02-11T13:31:07.664Z,10.68
2023-02-11T13:33:39.777Z,14.00
2023-02-11T13:36:22.521Z,11.65
2023-02-11T13:39:00.008Z,10.10
2023-02-11T13:41:33.178Z,13.15
2023-02-11T13:44:06.188Z,12.90
2023-02-11T13:47:01.885Z,12.45
2023-02-11T13:49:36.960Z,11.40
2023-02-11T13:52:18.106Z,12.27
2023-02-11T13:54:50.840Z,11.52
2023-02-11T13:57:39.855Z,10.77
2023-02-11T14:00:48.880Z,6.22
2023-02-11T14:03:33.633Z,7.80
2023-02-11T14:06:17.611Z,6.32
2023-02-11T14:11:48.619Z,6.03
2023-02-11T14:14:21.627Z,8.27
2023-02-11T14:17:18.609Z,8.02
2023-02-11T14:19:47.585Z,9.23
2023-02-11T14:22:19.700Z,5.30
2023-02-11T14:24:51.991Z,10.23
2023-02-11T14:27:30.436Z,6.75
2023-02-11T14:30:39.631Z,8.50
2023-02-11T14:33:28.243Z,7.88
2023-02-11T14:36:13.715Z,8.73
2023-02-11T14:38:58.836Z,8.32
2023-02-11T14:41:29.629Z,6.05
2023-02-11T14:44:00.397Z,9.50
2023-02-11T14:46:55.453Z,9.70
2023-02-11T14:49:28.853Z,8.50
2023-02-11T14:52:04.084Z,11.38
2023-02-11T14:54:33.127Z,12.23
2023-02-11T14:57:09.570Z,14.55
2023-02-11T14:59:36.580Z,9.27
2023-02-11T15:02:22.484Z,10.82
2023-02-11T15:04:49.551Z,10.85
2023-02-11T15:07:17.898Z,8.18
2023-02-11T15:09:48.975Z,12.15
2023-02-11T15:12:20.145Z,10.95
2023-02-11T15:14:51.417Z,11.10
2023-02-11T15:17:25.530Z,10.27
2023-02-11T15:19:56.698Z,10.32
2023-02-11T15:22:26.757Z,11.90
2023-02-11T15:25:11.897Z,9.25
2023-02-11T15:27:40.806Z,9.85
2023-02-11T15:30:28.910Z,11.50
2023-02-11T15:32:59.892Z,8.80
2023-02-11T15:35:30.514Z,13.13
2023-02-11T15:37:58.689Z,11.40
2023-02-11T15:40:29.223Z,9.25
2023-02-11T15:42:59.118Z,12.50
2023-02-11T15:45:31.543Z,13.25
2023-02-11T15:48:09.188Z,9.88
2023-02-11T15:50:38.151Z,14.90
2023-02-11T15:53:25.233Z,11.52
2023-02-11T15:55:59.943Z,12.52
2023-02-11T15:58:26.928Z,15.57
2023-02-11T16:00:54.419Z,11.95
2023-02-11T16:03:26.059Z,10.82
2023-02-11T16:05:53.473Z,12.07
2023-02-11T16:08:23.540Z,10.60
2023-02-11T16:10:59.859Z,10.73
2023-02-11T16:13:27.667Z,10.00
2023-02-11T16:15:57.371Z,9.05
2023-02-11T16:18:39.666Z,11.43
2023-02-11T16:21:14.853Z,10.95
2023-02-11T16:23:48.649Z,8.30
2023-02-11T16:26:26.917Z,8.70
2023-02-11T16:29:03.366Z,14.20
2023-02-11T16:31:35.636Z,20.73
2023-02-11T16:34:13.577Z,12.10
2023-02-11T16:36:40.430Z,13.88
2023-02-11T16:39:07.668Z,12.57
2023-02-11T16:41:34.868Z,18.45
2023-02-11T16:44:01.777Z,10.65
2023-02-11T16:46:54.676Z,16.45
2023-02-11T16:49:27.549Z,16.60
2023-02-11T16:52:00.124Z,11.05
2023-02-11T16:54:27.728Z,14.57
2023-02-11T16:56:55.473Z,13.75
2023-02-11T16:59:22.501Z,16.50
2023-02-11T17:01:52.040Z,15.50
2023-02-11T17:04:28.216Z,17.40
2023-02-11T17:06:58.263Z,12.43
2023-02-11T17:09:30.570Z,9.02
2023-02-11T17:11:58.036Z,12.10
2023-02-11T17:14:25.872Z,10.38
2023-02-11T17:16:53.083Z,12.57
2023-02-11T17:19:22.278Z,11.38
2023-02-11T17:21:52.204Z,12.32
2023-02-11T17:24:21.014Z,10.82
2023-02-11T17:26:49.079Z,7.53
2023-02-11T17:29:19.711Z,10.23
2023-02-11T17:31:47.053Z,10.77
2023-02-11T17:34:14.595Z,9.18
2023-02-11T17:36:43.846Z,8.80
2023-02-11T17:39:11.075Z,9.90
2023-02-11T17:41:39.692Z,9.80
2023-02-11T17:46:59.339Z,11.98
2023-02-11T17:49:26.433Z,9.27
2023-02-11T17:51:54.724Z,8.98
2023-02-11T17:54:21.788Z,9.68
2023-02-11T17:56:50.430Z,14.05
2023-02-11T17:59:17.922Z,10.27
2023-02-11T18:01:45.202Z,13.45
2023-02-11T18:04:16.374Z,8.93
2023-02-11T18:06:45.176Z,12.15
2023-02-11T18:09:13.708Z,11.60
2023-02-11T18:11:41.197Z,12.63
2023-02-11T18:14:09.830Z,10.05
2023-02-11T18:16:37.734Z,12.13
2023-02-11T18:19:05.848Z,10.30
2023-02-11T18:21:35.227Z,11.52
2023-02-11T18:24:06.372Z,8.55
2023-02-11T18:26:36.004Z,12.57
2023-02-11T18:29:04.061Z,10.95
2023-02-11T18:31:31.370Z,12.52
2023-02-11T18:33:58.593Z,9.55
2023-02-11T18:36:25.428Z,11.13
2023-02-11T18:38:52.411Z,8.68
2023-02-11T18:41:19.637Z,10.82
2023-02-11T18:43:48.160Z,11.57
2023-02-11T18:46:16.061Z,11.73
2023-02-11T18:48:43.789Z,7.40
2023-02-11T18:51:14.198Z,9.43
2023-02-11T18:53:42.881Z,7.75
2023-02-11T18:56:12.572Z,8.10
2023-02-11T18:58:40.026Z,8.70
2023-02-11T19:01:18.006Z,6.78
2023-02-11T19:03:46.066Z,8.27
2023-02-11T19:06:15.561Z,5.90
2023-02-11T19:08:44.657Z,6.53
2023-02-11T19:11:12.871Z,4.43
2023-02-11T19:13:39.793Z,5.97
2023-02-11T19:16:11.194Z,5.03
2023-02-11T19:18:39.737Z,6.97
2023-02-11T19:21:08.563Z,7.60
2023-02-11T19:23:36.144Z,7.70
2023-02-11T19:26:03.582Z,8.68
2023-02-11T19:28:31.173Z,6.07
2023-02-11T19:30:58.125Z,10.15
2023-02-11T19:33:25.325Z,9.50
2023-02-11T19:35:53.614Z,9.18
2023-02-11T19:38:20.514Z,8.88
2023-02-11T19:40:55.915Z,9.43
2023-02-11T19:43:23.076Z,9.23
2023-02-11T19:45:50.445Z,8.93
2023-02-11T19:48:17.675Z,12.10
2023-02-11T19:50:45.120Z,9.65
2023-02-11T19:53:13.632Z,10.40
2023-02-11T19:55:40.559Z,11.20
2023-02-11T19:58:07.818Z,11.25
2023-02-11T20:00:34.625Z,8.98
2023-02-11T20:03:01.623Z,12.18
2023-02-11T20:05:28.578Z,9.80
2023-02-11T20:07:56.350Z,10.93
2023-02-11T20:10:25.323Z,9.23
2023-02-11T20:12:52.504Z,11.82
2023-02-11T20:15:19.370Z,9.07
2023-02-11T20:17:46.221Z,9.05
2023-02-11T20:20:13.387Z,7.25
2023-02-11T20:22:40.293Z,9.20
2023-02-11T20:25:07.967Z,9.27
2023-02-11T20:27:36.413Z,9.93
2023-02-11T20:30:03.758Z,10.02
2023-02-11T20:32:32.708Z,10.40
2023-02-11T20:35:00.027Z,9.45
2023-02-11T20:37:28.019Z,9.02
2023-02-11T20:39:54.967Z,8.68
2023-02-11T20:42:22.167Z,8.32
2023-02-11T20:44:50.619Z,9.43
2023-02-11T20:47:17.600Z,10.38
2023-02-11T20:49:44.765Z,9.43
2023-02-11T20:52:11.897Z,10.40
2023-02-11T20:54:38.836Z,12.20
2023-02-11T20:57:05.916Z,12.20
2023-02-11T20:59:32.946Z,10.68
2023-02-11T21:02:01.242Z,8.55
2023-02-11T21:04:30.542Z,9.80
2023-02-11T21:07:00.369Z,9.85
2023-02-11T21:09:33.805Z,11.32
2023-02-11T21:12:01.871Z,9.23
2023-02-11T21:14:32.382Z,9.63
2023-02-11T21:17:00.670Z,10.93
2023-02-11T21:19:28.109Z,11.38
2023-02-11T21:21:54.994Z,11.48
2023-02-11T21:24:22.054Z,13.15
2023-02-11T21:26:49.150Z,8.05
2023-02-11T21:29:16.341Z,9.20
2023-02-11T21:31:43.574Z,9.68
2023-02-11T21:34:12.101Z,10.93
2023-02-11T21:36:39.093Z,9.50
2023-02-11T21:39:06.297Z,13.35
2023-02-11T21:41:33.522Z,13.02
2023-02-11T21:44:00.872Z,9.18
2023-02-11T21:46:53.309Z,10.07
2023-02-11T21:49:23.198Z,11.38
2023-02-11T21:51:50.312Z,10.10
2023-02-11T21:54:17.287Z,9.55
2023-02-11T21:56:44.316Z,11.40
2023-02-11T21:59:13.322Z,10.02
2023-02-11T22:01:41.021Z,9.65
2023-02-11T22:04:08.064Z,11.30
2023-02-11T22:06:36.271Z,12.95
2023-02-11T22:09:06.537Z,12.57
2023-02-11T22:11:34.557Z,14.10
2023-02-11T22:14:01.891Z,8.57
2023-02-11T22:16:29.407Z,10.02
2023-02-11T22:18:57.586Z,8.57
2023-02-11T22:21:28.685Z,11.10
2023-02-11T22:24:03.918Z,11.48
2023-02-11T22:26:30.811Z,8.13
2023-02-11T22:28:58.083Z,11.45
2023-02-11T22:31:29.104Z,9.15
2023-02-11T22:33:56.711Z,11.18
2023-02-11T22:36:26.166Z,10.15
2023-02-11T22:38:54.186Z,12.82
2023-02-11T22:41:23.284Z,9.57
2023-02-11T22:43:50.390Z,9.82
2023-02-11T22:46:20.087Z,10.77
2023-02-11T22:48:49.379Z,9.68
2023-02-11T22:51:19.332Z,8.48
2023-02-11T22:53:51.319Z,10.18
2023-02-11T22:56:18.562Z,11.98
2023-02-11T22:58:47.075Z,10.10
2023-02-11T23:01:18.163Z,10.30
2023-02-11T23:03:45.705Z,10.02
2023-02-11T23:06:12.586Z,10.40
2023-02-11T23:08:41.286Z,10.52
2023-02-11T23:11:12.193Z,11.38
2023-02-11T23:13:42.129Z,9.57
2023-02-11T23:16:14.388Z,9.82
2023-02-11T23:18:45.918Z,8.07
2023-02-11T23:21:16.618Z,7.80
2023-02-11T23:23:44.728Z,8.80
2023-02-11T23:26:14.142Z,9.20
2023-02-11T23:28:41.228Z,8.48
2023-02-11T23:31:18.812Z,8.85
2023-02-11T23:33:47.819Z,8.02
2023-02-11T23:36:23.412Z,8.10
2023-02-11T23:38:51.051Z,10.38
2023-02-11T23:41:19.718Z,10.02
2023-02-11T23:43:50.144Z,11.38
2023-02-11T23:46:19.660Z,9.02
2023-02-11T23:48:46.934Z,8.15
2023-02-11T23:51:13.935Z,9.30
2023-02-11T23:53:41.475Z,7.95
2023-02-11T23:56:11.152Z,8.75
2023-02-11T23:58:38.359Z,8.18
